This is the latest recevied weather packets stored in our database for station/object K0QED. If no packets are shown the sender has not sent any weather packets the latest 10 day(s).
| Time | Temp. | Humidity | Pressure | Rain* | Wind** | Luminosity | Snow |
|---|---|---|---|---|---|---|---|
| 1777051899 | 13.89° C | 20% | 1013.6 hPa | 0 mm | - | 644 W/m² | - |
| 1777051597 | 13.89° C | 20% | 1013.9 hPa | 0 mm | - | 700 W/m² | - |
| 1777051293 | 12.78° C | 20% | 1013.9 hPa | 0 mm | - | 691 W/m² | - |
| 1777050988 | 13.33° C | 20% | 1013.6 hPa | 0 mm | - | 689 W/m² | - |
| 1777050684 | 12.78° C | 21% | 1013.6 hPa | 0 mm | - | 678 W/m² | - |
| 1777050379 | 12.78° C | 22% | 1013.9 hPa | 0 mm | - | 645 W/m² | - |
| 1777050074 | 12.78° C | 23% | 1013.7 hPa | 0 mm | - | 636 W/m² | - |
| 1777049768 | 12.78° C | 22% | 1013.9 hPa | 0 mm | - | 642 W/m² | - |
| 1777049465 | 12.22° C | 23% | 1014 hPa | 0 mm | - | 627 W/m² | - |
| 1777049163 | 12.78° C | 24% | 1014 hPa | 0 mm | - | 680 W/m² | - |
| 1777048858 | 12.78° C | 23% | 1013.9 hPa | 0 mm | - | 738 W/m² | - |
| 1777048554 | 12.78° C | 25% | 1014 hPa | 0 mm | - | 785 W/m² | - |
| 1777048252 | 12.22° C | 25% | 1014 hPa | 0 mm | - | 757 W/m² | - |
| 1777047948 | 12.22° C | 23% | 1014.4 hPa | 0 mm | - | 730 W/m² | - |
| 1777047644 | 12.22° C | 22% | 1014 hPa | 0 mm | - | 702 W/m² | - |
| 1777047340 | 11.67° C | 23% | 1014.1 hPa | 0 mm | - | 703 W/m² | - |
| 1777047036 | 12.22° C | 23% | 1014.5 hPa | 0 mm | - | 709 W/m² | - |
| 1777046733 | 11.67° C | 24% | 1014.2 hPa | 0 mm | - | 659 W/m² | - |
| 1777046428 | 10.56° C | 25% | 1014.5 hPa | 0 mm | - | 269 W/m² | - |
| 1777046124 | 10.56° C | 25% | 1014.5 hPa | 0 mm | - | 272 W/m² | - |
| 1777045821 | 10.56° C | 26% | 1014.5 hPa | 0 mm | - | 134 W/m² | - |
| 1777045517 | 10° C | 25% | 1014.5 hPa | 0 mm | - | 42 W/m² | - |
* Rain latest hour (hover to see other rain measurements)
** Current wind speed in m/s (hover to see current wind gust speed)